LYN weather

Lyon-Bron Airport
Lyon/Bron, Auvergne-Rhône-Alpes, France

Public forecast

Using degrees Celsius for public forecast. Weather courtesy of forecast.io.

Current aviation weather report (METAR) for Lyon-Bron Airport

Retrieved 2020/02/22 10:00 UTC (26 minutes ago):

LFLY 221000Z AUTO 20004KT 160V230 CAVOK 09/01 Q1032 NOSIG

Aviation forecast (TAF) for Lyon-Bron Airport

Retrieved 2020/02/22 06:21 UTC (4 hours ago):

TAF LFLY 220500Z 2206/2306 VRB02KT CAVOK PROB30 2304/2306 4000 BR